Time;durP1;ratioP1;P1;durP2;ratioP2;P2;SDS_P1;SDS_P2;PMS_P1;PMS_P2;Temp;Humidity;BMP_temperature;BMP_pressure;BME280_temperature;BME280_humidity;BME280_pressure;Samples;Min_cycle;Max_cycle;Signal;HPM_P1;HPM_P2
2023/04/15 00:01:17;;;;;;;11.10;3.00;;;3.20;97.40;;;;;;5083923;28;20398;-70
2023/04/15 00:03:43;;;;;;;11.05;4.20;;;3.20;97.50;;;;;;5076669;28;20028;-70
2023/04/15 00:06:08;;;;;;;8.05;3.20;;;3.20;97.60;;;;;;5081701;28;20047;-70
2023/04/15 00:08:34;;;;;;;9.88;3.20;;;3.30;97.60;;;;;;5081468;28;20039;-70
2023/04/15 00:11:01;;;;;;;12.80;3.65;;;3.30;97.50;;;;;;5083708;28;20309;-70
2023/04/15 00:13:27;;;;;;;9.63;3.42;;;3.20;97.20;;;;;;5085302;28;20108;-70
2023/04/15 00:15:52;;;;;;;11.50;3.33;;;3.30;97.30;;;;;;5081730;28;20371;-70
2023/04/15 00:18:18;;;;;;;13.48;4.47;;;3.40;97.70;;;;;;5083389;28;20321;-71
2023/04/15 00:20:43;;;;;;;9.70;3.33;;;3.40;97.60;;;;;;5076485;28;20320;-70
2023/04/15 00:23:09;;;;;;;10.75;3.67;;;3.50;97.70;;;;;;5079531;28;20314;-70
2023/04/15 00:25:34;;;;;;;7.32;3.63;;;3.50;97.70;;;;;;5080622;28;20040;-71
2023/04/15 00:28:00;;;;;;;10.15;3.50;;;3.50;97.50;;;;;;5084008;28;20033;-70
2023/04/15 00:30:26;;;;;;;9.05;2.92;;;3.50;97.70;;;;;;5086726;28;20107;-70
2023/04/15 00:32:52;;;;;;;11.65;3.65;;;3.50;97.70;;;;;;5086470;28;20063;-71
2023/04/15 00:35:17;;;;;;;10.68;3.67;;;3.50;97.70;;;;;;5086673;28;20016;-70
2023/04/15 00:37:43;;;;;;;10.95;3.50;;;3.50;97.60;;;;;;5084078;28;20028;-70
2023/04/15 00:40:11;;;;;;;11.05;3.35;;;3.60;97.50;;;;;;5090185;28;20110;-71
2023/04/15 00:42:38;;;;;;;10.90;3.70;;;3.60;97.50;;;;;;5088404;28;20436;-70
2023/04/15 00:45:04;;;;;;;13.10;3.38;;;3.60;97.70;;;;;;5079714;28;20036;-70
2023/04/15 00:47:30;;;;;;;8.82;3.60;;;3.60;97.60;;;;;;5082712;28;20320;-70
2023/04/15 00:49:56;;;;;;;10.80;3.80;;;3.60;97.50;;;;;;5087926;28;20031;-70
2023/04/15 00:52:22;;;;;;;11.18;3.17;;;3.60;97.60;;;;;;5088009;28;20102;-71
2023/04/15 00:54:48;;;;;;;8.35;3.53;;;3.60;97.50;;;;;;5079042;28;20111;-71
2023/04/15 00:57:13;;;;;;;11.07;3.53;;;3.60;97.60;;;;;;5075166;28;20031;-70
2023/04/15 00:59:39;;;;;;;8.52;3.78;;;3.60;97.60;;;;;;5082307;28;20322;-71
2023/04/15 01:02:05;;;;;;;9.18;3.55;;;3.70;97.80;;;;;;5082327;28;20083;-71
2023/04/15 01:04:31;;;;;;;10.05;3.95;;;3.70;97.70;;;;;;5094095;28;20024;-71
2023/04/15 01:06:57;;;;;;;8.00;3.30;;;3.80;97.60;;;;;;5086903;28;20021;-71
2023/04/15 01:09:22;;;;;;;12.95;4.10;;;3.70;97.70;;;;;;5086180;28;20035;-71
2023/04/15 01:11:48;;;;;;;8.35;3.30;;;3.80;97.70;;;;;;5077263;28;20035;-71
2023/04/15 01:14:13;;;;;;;8.75;3.10;;;3.70;97.50;;;;;;5083877;28;20102;-71
2023/04/15 01:16:39;;;;;;;8.00;3.40;;;3.70;97.60;;;;;;5080355;28;20020;-70
2023/04/15 01:19:10;;;;;;;5.93;3.20;;;3.70;97.50;;;;;;5084331;28;20032;-71
2023/04/15 01:21:39;;;;;;;8.52;3.25;;;3.60;97.20;;;;;;5090541;28;20377;-71
2023/04/15 01:24:09;;;;;;;9.13;3.42;;;3.60;97.30;;;;;;5075483;28;20021;-71
2023/04/15 01:26:39;;;;;;;8.55;2.95;;;3.60;97.30;;;;;;5084282;28;20031;-71
2023/04/15 01:29:05;;;;;;;12.68;3.47;;;3.60;97.00;;;;;;5089446;28;20081;-70
2023/04/15 01:31:31;;;;;;;9.40;2.97;;;3.60;97.20;;;;;;5088412;28;20028;-70
2023/04/15 01:33:58;;;;;;;9.27;3.33;;;3.60;97.20;;;;;;5074786;28;20412;-71
2023/04/15 01:36:26;;;;;;;7.13;3.08;;;3.50;97.10;;;;;;5078287;28;20032;-71
2023/04/15 01:38:53;;;;;;;12.38;3.33;;;3.50;97.00;;;;;;5091267;28;20043;-71
2023/04/15 01:41:27;;;;;;;9.20;3.20;;;3.40;96.90;;;;;;5090296;28;20028;-71
2023/04/15 01:43:53;;;;;;;9.13;3.17;;;3.40;97.20;;;;;;5093122;28;20372;-71
2023/04/15 01:46:19;;;;;;;8.35;3.40;;;3.50;97.20;;;;;;5079832;28;20348;-71
2023/04/15 01:48:45;;;;;;;7.95;3.13;;;3.50;97.10;;;;;;5075409;28;20028;-71
2023/04/15 01:51:10;;;;;;;10.57;3.28;;;3.40;97.00;;;;;;5086417;28;20361;-71
2023/04/15 01:53:36;;;;;;;7.53;3.38;;;3.40;96.90;;;;;;5095531;28;20027;-71
2023/04/15 01:56:06;;;;;;;10.63;3.00;;;3.40;96.90;;;;;;5083782;28;20032;-70
2023/04/15 01:58:31;;;;;;;9.95;3.25;;;3.30;96.70;;;;;;5074936;28;20123;-71
2023/04/15 02:00:57;;;;;;;9.27;3.53;;;3.30;96.80;;;;;;5082984;28;20128;-71
2023/04/15 02:03:24;;;;;;;10.40;3.20;;;3.30;96.80;;;;;;5095586;28;20024;-70
2023/04/15 02:05:50;;;;;;;10.55;3.33;;;3.30;96.60;;;;;;5090329;28;20028;-70
2023/04/15 02:08:16;;;;;;;6.93;3.45;;;3.30;96.60;;;;;;5083998;28;20028;-70
2023/04/15 02:10:42;;;;;;;7.97;3.00;;;3.20;96.50;;;;;;5084725;28;20066;-71
2023/04/15 02:13:08;;;;;;;10.35;3.03;;;3.10;96.10;;;;;;5084043;28;20017;-70
2023/04/15 02:15:33;;;;;;;10.57;3.25;;;3.10;96.10;;;;;;5091242;28;20024;-71
2023/04/15 02:18:00;;;;;;;9.00;3.25;;;3.10;96.30;;;;;;5088612;28;20039;-71
2023/04/15 02:20:26;;;;;;;8.18;3.05;;;3.10;96.40;;;;;;5087395;28;20437;-70
2023/04/15 02:22:52;;;;;;;9.13;3.00;;;3.00;96.20;;;;;;5085099;28;20024;-70
2023/04/15 02:25:17;;;;;;;7.13;3.50;;;2.90;96.00;;;;;;5086626;28;20455;-69
2023/04/15 02:27:43;;;;;;;7.70;4.13;;;2.90;95.90;;;;;;5080453;28;20321;-70
2023/04/15 02:30:09;;;;;;;10.73;3.60;;;2.90;95.90;;;;;;5078038;28;20028;-70
2023/04/15 02:32:36;;;;;;;6.45;2.63;;;2.80;96.40;;;;;;5090104;28;20052;-72
2023/04/15 02:35:06;;;;;;;9.55;3.10;;;2.60;96.30;;;;;;5077595;28;20020;-72
2023/04/15 02:37:35;;;;;;;8.93;3.00;;;2.50;95.40;;;;;;5089925;28;20302;-72
2023/04/15 02:40:01;;;;;;;9.48;3.22;;;2.50;94.80;;;;;;5088128;28;20034;-72
2023/04/15 02:42:29;;;;;;;10.25;3.00;;;2.40;94.90;;;;;;5082734;28;20024;-72
2023/04/15 02:44:58;;;;;;;7.75;3.33;;;2.30;94.50;;;;;;5088756;28;20107;-71
2023/04/15 02:47:23;;;;;;;10.38;3.42;;;2.20;94.40;;;;;;5090056;28;20032;-72
2023/04/15 02:49:52;;;;;;;8.55;3.40;;;2.10;94.10;;;;;;5081904;28;20032;-71
2023/04/15 02:52:17;;;;;;;10.07;3.25;;;2.00;93.40;;;;;;5084474;28;20321;-72
2023/04/15 02:54:43;;;;;;;12.82;3.20;;;1.90;92.60;;;;;;5086655;28;20034;-72
2023/04/15 02:57:10;;;;;;;9.65;3.00;;;1.90;92.60;;;;;;5080190;28;20024;-72
2023/04/15 02:59:36;;;;;;;9.93;3.78;;;1.90;92.50;;;;;;5084412;28;20048;-72
2023/04/15 03:02:01;;;;;;;10.77;3.95;;;1.90;92.70;;;;;;5082612;28;20295;-71
2023/04/15 03:04:29;;;;;;;9.52;3.17;;;1.90;92.50;;;;;;5077275;28;20064;-70
2023/04/15 03:06:55;;;;;;;8.40;3.28;;;2.00;92.80;;;;;;5090190;28;20077;-72
2023/04/15 03:09:21;;;;;;;9.13;3.20;;;1.90;93.20;;;;;;5076748;28;20082;-72
2023/04/15 03:11:46;;;;;;;8.32;3.10;;;1.80;93.50;;;;;;5082511;28;20409;-72
2023/04/15 03:14:12;;;;;;;11.90;4.15;;;1.70;93.10;;;;;;5083966;28;20358;-72
2023/04/15 03:16:37;;;;;;;10.40;3.45;;;1.60;91.70;;;;;;5080747;28;20028;-72
2023/04/15 03:19:03;;;;;;;10.98;3.50;;;1.70;91.80;;;;;;5088677;28;20091;-72
2023/04/15 03:21:29;;;;;;;6.75;3.00;;;1.90;92.20;;;;;;5078691;28;20340;-72
2023/04/15 03:23:55;;;;;;;7.45;3.08;;;2.00;92.70;;;;;;5097801;28;20050;-72
2023/04/15 03:26:28;;;;;;;8.05;2.85;;;2.00;93.30;;;;;;5091015;28;20115;-72
2023/04/15 03:28:54;;;;;;;11.45;3.10;;;2.00;93.40;;;;;;5076472;28;20154;-71
2023/04/15 03:31:20;;;;;;;11.07;4.40;;;2.00;93.70;;;;;;5077878;28;21105;-71
2023/04/15 03:33:45;;;;;;;10.32;2.95;;;2.00;93.90;;;;;;5080207;28;20027;-70
2023/04/15 03:36:11;;;;;;;7.95;2.95;;;2.00;93.50;;;;;;5093075;28;20032;-71
2023/04/15 03:38:36;;;;;;;10.40;3.15;;;2.00;93.80;;;;;;5094417;28;20107;-71
2023/04/15 03:41:02;;;;;;;11.05;3.20;;;1.90;94.00;;;;;;5088115;28;20052;-72
2023/04/15 03:43:27;;;;;;;9.30;3.25;;;1.90;93.50;;;;;;5080187;28;20029;-71
2023/04/15 03:45:53;;;;;;;10.10;3.40;;;1.80;94.00;;;;;;5083817;28;20016;-71
2023/04/15 03:48:18;;;;;;;10.48;4.05;;;1.60;94.00;;;;;;5087132;28;20117;-71
2023/04/15 03:50:44;;;;;;;8.98;3.63;;;1.30;94.10;;;;;;5078238;28;20012;-71
2023/04/15 03:53:10;;;;;;;9.50;3.35;;;1.10;93.10;;;;;;5085525;28;20511;-70
2023/04/15 03:55:35;;;;;;;9.85;3.70;;;0.80;92.40;;;;;;5078556;28;20111;-71
2023/04/15 03:58:01;;;;;;;7.65;3.53;;;0.70;91.60;;;;;;5087320;28;20110;-71
2023/04/15 04:00:26;;;;;;;8.57;3.45;;;0.60;90.70;;;;;;5091326;28;20024;-71
2023/04/15 04:02:52;;;;;;;8.05;4.18;;;0.50;90.00;;;;;;5080762;28;20024;-71
2023/04/15 04:05:18;;;;;;;10.88;3.70;;;0.40;89.50;;;;;;5081020;28;20040;-71
2023/04/15 04:07:43;;;;;;;8.57;3.70;;;0.40;87.10;;;;;;5080299;28;20028;-71
2023/04/15 04:10:09;;;;;;;7.95;3.70;;;0.50;86.30;;;;;;5076371;28;20020;-71
2023/04/15 04:12:34;;;;;;;9.70;3.15;;;0.60;84.60;;;;;;5092276;28;20444;-71
2023/04/15 04:15:00;;;;;;;11.38;3.78;;;0.90;84.80;;;;;;5086242;28;20046;-71
2023/04/15 04:17:26;;;;;;;11.30;3.58;;;1.10;85.80;;;;;;5088434;28;20096;-71
2023/04/15 04:19:51;;;;;;;10.82;3.28;;;1.30;87.80;;;;;;5088934;28;20032;-71
2023/04/15 04:22:17;;;;;;;8.80;3.30;;;1.50;89.80;;;;;;5082458;28;20037;-71
2023/04/15 04:24:42;;;;;;;9.45;3.25;;;1.60;91.20;;;;;;5075274;28;20358;-71
2023/04/15 04:27:08;;;;;;;6.20;3.20;;;1.70;92.30;;;;;;5086938;28;20025;-71
2023/04/15 04:29:33;;;;;;;12.68;3.20;;;1.70;93.20;;;;;;5073866;28;20035;-70
2023/04/15 04:31:59;;;;;;;7.22;3.08;;;1.80;93.90;;;;;;5094439;28;20026;-71
2023/04/15 04:34:25;;;;;;;12.77;5.47;;;1.70;94.00;;;;;;5084446;28;20032;-70
2023/04/15 04:36:53;;;;;;;14.02;4.65;;;1.50;94.70;;;;;;5089168;28;20028;-71
2023/04/15 04:39:19;;;;;;;14.18;5.20;;;1.30;94.60;;;;;;5092368;28;20085;-70
2023/04/15 04:41:44;;;;;;;10.25;4.70;;;1.00;94.30;;;;;;5081191;28;20036;-71
2023/04/15 04:44:10;;;;;;;8.80;4.03;;;0.80;93.40;;;;;;5078960;28;20055;-71
2023/04/15 04:46:36;;;;;;;9.07;3.40;;;0.70;92.30;;;;;;5076463;28;20028;-71
2023/04/15 04:49:01;;;;;;;8.27;3.40;;;0.70;90.40;;;;;;5081142;28;20028;-71
2023/04/15 04:51:27;;;;;;;7.75;3.00;;;0.70;89.30;;;;;;5085402;28;20031;-71
2023/04/15 04:53:53;;;;;;;10.48;3.60;;;0.70;87.80;;;;;;5094752;28;20019;-71
2023/04/15 04:56:18;;;;;;;10.20;3.20;;;0.80;87.40;;;;;;5079704;28;20039;-71
2023/04/15 04:58:44;;;;;;;9.98;3.45;;;0.90;87.90;;;;;;5078299;28;20066;-71
2023/04/15 05:01:10;;;;;;;6.72;3.13;;;0.90;88.20;;;;;;5081728;28;20028;-71
2023/04/15 05:03:37;;;;;;;9.05;3.28;;;1.00;87.90;;;;;;5087613;28;20185;-71
2023/04/15 05:06:05;;;;;;;9.35;3.65;;;1.10;88.40;;;;;;5082016;28;20068;-71
2023/04/15 05:08:30;;;;;;;10.85;4.13;;;1.20;89.30;;;;;;5077658;28;20111;-71
2023/04/15 05:10:56;;;;;;;8.32;4.40;;;1.10;91.00;;;;;;5089976;28;20107;-71
2023/04/15 05:13:24;;;;;;;8.45;3.90;;;1.10;90.80;;;;;;5089338;28;20462;-71
2023/04/15 05:15:50;;;;;;;9.30;3.95;;;1.00;91.40;;;;;;5081613;28;20032;-71
2023/04/15 05:18:16;;;;;;;10.13;3.47;;;0.90;90.80;;;;;;5083725;28;20023;-70
2023/04/15 05:20:45;;;;;;;7.88;4.03;;;1.00;90.00;;;;;;5094779;28;20046;-70
2023/04/15 05:23:10;;;;;;;7.55;4.45;;;1.00;89.90;;;;;;5082511;28;20042;-70
2023/04/15 05:25:36;;;;;;;9.60;3.80;;;1.00;89.70;;;;;;5085934;28;20028;-70
2023/04/15 05:28:01;;;;;;;8.85;3.92;;;1.10;89.10;;;;;;5081867;28;20324;-71
2023/04/15 05:30:27;;;;;;;10.52;3.92;;;1.30;89.90;;;;;;5094382;28;20043;-71
2023/04/15 05:32:52;;;;;;;12.57;3.28;;;1.40;90.80;;;;;;5080205;28;20123;-71
2023/04/15 05:35:18;;;;;;;9.18;3.22;;;1.50;92.10;;;;;;5084028;28;20082;-70
2023/04/15 05:37:44;;;;;;;10.30;3.90;;;1.60;92.20;;;;;;5078278;28;20024;-70
2023/04/15 05:40:10;;;;;;;11.20;4.72;;;1.60;92.30;;;;;;5076003;28;20013;-71
2023/04/15 05:42:36;;;;;;;6.55;3.47;;;1.60;92.10;;;;;;5086837;28;20093;-71
2023/04/15 05:45:04;;;;;;;8.65;3.35;;;1.80;92.90;;;;;;5085302;28;20031;-71
2023/04/15 05:47:30;;;;;;;9.60;3.63;;;2.00;93.90;;;;;;5087421;28;20117;-71
2023/04/15 05:49:57;;;;;;;7.30;2.75;;;2.30;95.50;;;;;;5085835;28;20029;-71
2023/04/15 05:52:23;;;;;;;15.27;4.20;;;2.60;97.20;;;;;;5088054;28;20024;-71
2023/04/15 05:54:49;;;;;;;9.60;2.88;;;2.80;98.00;;;;;;5093551;28;20023;-71
2023/04/15 05:57:15;;;;;;;6.13;2.42;;;3.00;98.00;;;;;;5080351;28;20013;-71
2023/04/15 05:59:41;;;;;;;13.43;6.32;;;3.00;98.00;;;;;;5079979;28;20437;-71
2023/04/15 06:02:07;;;;;;;13.15;7.70;;;3.00;98.00;;;;;;5078895;28;20078;-71
2023/04/15 06:04:32;;;;;;;12.95;6.50;;;2.80;98.00;;;;;;5087608;28;20060;-71
2023/04/15 06:06:58;;;;;;;12.52;5.90;;;2.70;98.00;;;;;;5088084;28;20336;-71
2023/04/15 06:09:23;;;;;;;14.85;6.45;;;2.70;97.90;;;;;;5080305;28;20421;-71
2023/04/15 06:11:50;;;;;;;9.43;5.65;;;2.70;97.50;;;;;;5087639;28;20078;-71
2023/04/15 06:14:16;;;;;;;12.25;4.68;;;2.80;97.30;;;;;;5083900;28;20090;-71
2023/04/15 06:16:42;;;;;;;11.60;4.32;;;2.80;97.30;;;;;;5085104;28;20032;-71
2023/04/15 06:19:07;;;;;;;10.40;3.95;;;3.00;97.60;;;;;;5083214;28;20028;-71
2023/04/15 06:21:33;;;;;;;9.02;4.15;;;3.10;98.00;;;;;;5089431;28;20036;-71
2023/04/15 06:24:00;;;;;;;7.78;3.72;;;3.30;98.00;;;;;;5085933;28;20115;-71
2023/04/15 06:26:26;;;;;;;11.48;4.93;;;3.50;98.00;;;;;;5084778;28;20082;-71
2023/04/15 06:28:54;;;;;;;35.58;23.58;;;3.60;98.00;;;;;;5079088;28;20029;-71
2023/04/15 06:31:20;;;;;;;43.00;27.80;;;3.70;98.00;;;;;;5080237;28;20033;-71
2023/04/15 06:33:45;;;;;;;17.80;9.18;;;3.90;98.00;;;;;;5078798;28;20421;-71
2023/04/15 06:36:11;;;;;;;13.13;7.10;;;4.10;98.00;;;;;;5084404;28;20047;-71
2023/04/15 06:38:37;;;;;;;18.40;9.13;;;4.20;98.00;;;;;;5093532;28;20417;-71
2023/04/15 06:41:03;;;;;;;19.63;10.70;;;4.30;98.00;;;;;;5083329;28;20031;-71
2023/04/15 06:43:28;;;;;;;16.27;8.65;;;4.50;98.00;;;;;;5083354;28;20068;-71
2023/04/15 06:45:55;;;;;;;15.63;6.78;;;4.80;98.00;;;;;;5077881;28;20117;-71
2023/04/15 06:48:21;;;;;;;10.32;5.13;;;5.10;97.30;;;;;;5081333;28;20055;-71
2023/04/15 06:50:47;;;;;;;11.10;4.82;;;5.40;97.00;;;;;;5078578;28;20352;-71
2023/04/15 06:53:13;;;;;;;16.20;6.78;;;5.80;95.10;;;;;;5085938;28;20032;-71
2023/04/15 06:55:39;;;;;;;125.97;74.45;;;6.10;94.40;;;;;;5085426;28;20024;-71
2023/04/15 06:58:05;;;;;;;24.48;14.65;;;6.40;93.60;;;;;;5084272;28;20041;-71
2023/04/15 07:00:32;;;;;;;20.98;12.57;;;6.50;92.00;;;;;;5092449;28;20036;-71
2023/04/15 07:02:58;;;;;;;13.52;7.72;;;6.90;91.80;;;;;;5090392;28;20028;-71
2023/04/15 07:05:24;;;;;;;12.95;6.70;;;7.40;91.10;;;;;;5087160;28;20104;-71
2023/04/15 07:07:50;;;;;;;11.82;6.47;;;7.80;90.10;;;;;;5087164;28;20111;-71
2023/04/15 07:10:16;;;;;;;13.43;7.60;;;8.30;88.80;;;;;;5081313;28;20012;-71
2023/04/15 07:12:41;;;;;;;12.15;6.75;;;8.70;86.60;;;;;;5076370;28;20020;-71
2023/04/15 07:15:07;;;;;;;14.52;8.07;;;9.10;85.70;;;;;;5081020;28;20012;-71
2023/04/15 07:17:33;;;;;;;13.98;8.32;;;9.50;84.70;;;;;;5088494;28;20033;-71
2023/04/15 07:19:59;;;;;;;15.40;8.18;;;9.70;84.70;;;;;;5078199;28;20028;-71
2023/04/15 07:22:25;;;;;;;12.55;7.45;;;9.70;84.50;;;;;;5086335;28;20056;-71
2023/04/15 07:24:50;;;;;;;12.23;6.97;;;9.90;84.40;;;;;;5088134;28;20052;-71
2023/04/15 07:27:16;;;;;;;12.02;6.68;;;10.20;84.20;;;;;;5080563;28;20060;-70
2023/04/15 07:29:42;;;;;;;12.27;6.22;;;10.20;82.20;;;;;;5087092;28;20024;-71
2023/04/15 07:32:09;;;;;;;14.20;6.97;;;10.20;81.60;;;;;;5088976;28;20367;-71
2023/04/15 07:34:35;;;;;;;16.23;7.25;;;10.30;82.40;;;;;;5077053;28;20051;-71
2023/04/15 07:37:00;;;;;;;15.13;7.78;;;10.30;83.00;;;;;;5074537;28;20358;-71
2023/04/15 07:39:26;;;;;;;15.68;7.47;;;10.60;83.60;;;;;;5078808;28;20115;-71
2023/04/15 07:41:52;;;;;;;16.83;8.05;;;10.80;82.90;;;;;;5086178;28;20042;-70
2023/04/15 07:44:17;;;;;;;10.77;5.53;;;10.90;82.60;;;;;;5080720;28;20058;-70
2023/04/15 07:46:43;;;;;;;13.20;4.50;;;11.20;82.00;;;;;;5077944;28;20024;-71
2023/04/15 07:49:08;;;;;;;9.10;3.92;;;11.20;80.50;;;;;;5081260;28;20036;-71
2023/04/15 07:51:34;;;;;;;8.20;3.38;;;11.00;81.10;;;;;;5089053;28;20088;-70
2023/04/15 07:53:59;;;;;;;7.88;2.42;;;10.70;79.70;;;;;;5088795;28;20020;-71
2023/04/15 07:56:27;;;;;;;7.70;3.20;;;10.70;78.40;;;;;;5080300;28;20031;-71
2023/04/15 07:58:53;;;;;;;7.22;2.40;;;10.80;78.80;;;;;;5089963;28;20066;-72
2023/04/15 08:01:18;;;;;;;7.00;2.60;;;11.00;79.20;;;;;;5091846;28;20060;-72
2023/04/15 08:03:44;;;;;;;8.82;2.88;;;11.20;77.80;;;;;;5095845;28;20032;-71
2023/04/15 08:06:10;;;;;;;7.03;2.35;;;11.60;77.60;;;;;;5088025;28;20435;-71
2023/04/15 08:08:35;;;;;;;9.57;2.83;;;12.00;76.20;;;;;;5083105;28;20329;-71
2023/04/15 08:11:01;;;;;;;7.70;2.35;;;12.30;75.10;;;;;;5078155;28;20024;-71
2023/04/15 08:13:26;;;;;;;8.73;2.33;;;12.50;73.30;;;;;;5086908;28;20324;-71
2023/04/15 08:16:26;;;;;;;9.02;2.22;;;12.70;71.50;;;;;;5081646;28;20354;-71
2023/04/15 08:18:54;;;;;;;9.27;2.83;;;13.00;72.60;;;;;;5075712;28;20043;-70
2023/04/15 08:21:20;;;;;;;6.53;2.53;;;13.60;71.50;;;;;;5081681;28;20451;-72
2023/04/15 08:23:49;;;;;;;8.35;3.60;;;13.80;72.10;;;;;;5083925;28;20032;-72
2023/04/15 08:26:14;;;;;;;8.00;3.47;;;13.80;72.80;;;;;;5086685;28;20021;-71
2023/04/15 08:28:41;;;;;;;8.50;3.05;;;13.90;73.40;;;;;;5083689;28;20317;-71
2023/04/15 08:31:08;;;;;;;6.43;2.80;;;13.80;73.40;;;;;;5081047;28;20029;-72
2023/04/15 08:33:34;;;;;;;10.00;3.65;;;13.10;74.80;;;;;;5087600;28;20095;-71
2023/04/15 08:35:59;;;;;;;9.70;3.65;;;12.80;75.90;;;;;;5092224;28;20154;-71
2023/04/15 08:38:25;;;;;;;6.75;2.55;;;12.40;75.80;;;;;;5095040;28;20047;-70
2023/04/15 08:40:51;;;;;;;12.20;4.45;;;12.00;76.20;;;;;;5090775;28;20024;-70
2023/04/15 08:43:27;;;;;;;7.28;2.63;;;11.90;77.00;;;;;;5099509;28;20494;-70
2023/04/15 08:45:53;;;;;;;8.52;3.42;;;12.00;77.30;;;;;;5094522;28;20024;-70
2023/04/15 08:48:21;;;;;;;8.38;2.90;;;12.10;77.10;;;;;;5077616;28;20043;-70
2023/04/15 08:50:57;;;;;;;8.60;3.53;;;11.90;77.30;;;;;;5081817;28;20017;-71
2023/04/15 08:53:24;;;;;;;9.55;2.63;;;12.30;77.40;;;;;;5087123;28;20026;-71
2023/04/15 08:55:51;;;;;;;7.15;2.70;;;12.40;75.90;;;;;;5084302;28;20020;-70
2023/04/15 08:58:18;;;;;;;11.00;4.55;;;12.40;76.40;;;;;;5092995;28;20122;-70
2023/04/15 09:00:44;;;;;;;9.18;2.72;;;12.80;75.60;;;;;;5077529;28;20028;-71
2023/04/15 09:03:10;;;;;;;9.50;3.15;;;13.10;73.30;;;;;;5088502;28;20028;-71
2023/04/15 09:05:37;;;;;;;11.55;4.43;;;13.20;72.60;;;;;;5085860;28;20430;-69
2023/04/15 09:08:03;;;;;;;8.80;2.85;;;13.40;72.30;;;;;;5090077;28;20029;-69
2023/04/15 09:10:30;;;;;;;7.22;2.17;;;13.20;70.30;;;;;;5094511;28;20091;-70
2023/04/15 09:12:56;;;;;;;7.75;3.10;;;13.00;71.00;;;;;;5092435;28;20024;-69
2023/04/15 09:15:24;;;;;;;5.95;2.42;;;13.10;71.30;;;;;;5093632;28;20032;-69
2023/04/15 09:17:49;;;;;;;7.78;2.83;;;13.40;69.90;;;;;;5101248;28;20381;-70
2023/04/15 09:20:17;;;;;;;8.32;2.45;;;13.70;69.90;;;;;;5093269;28;20099;-70
2023/04/15 09:22:45;;;;;;;6.20;2.50;;;13.70;69.00;;;;;;5095727;28;20086;-69
2023/04/15 09:25:14;;;;;;;8.18;2.92;;;13.30;68.20;;;;;;5092909;28;20020;-69
2023/04/15 09:27:50;;;;;;;15.85;7.50;;;14.00;69.60;;;;;;5097644;28;20099;-70
2023/04/15 09:30:16;;;;;;;9.07;2.80;;;14.30;68.70;;;;;;5095596;28;20027;-69
2023/04/15 09:32:52;;;;;;;9.00;3.17;;;14.60;67.50;;;;;;5095625;28;20016;-70
2023/04/15 09:35:20;;;;;;;8.85;2.20;;;14.00;66.00;;;;;;5094943;28;20024;-69
2023/04/15 09:37:46;;;;;;;12.55;4.00;;;13.80;66.90;;;;;;5097765;28;20033;-70
2023/04/15 09:40:12;;;;;;;6.82;2.22;;;14.10;67.20;;;;;;5089963;28;20078;-70
2023/04/15 09:42:56;;;;;;;11.27;2.80;;;14.40;67.90;;;;;;5079803;28;20428;-71
2023/04/15 09:45:22;;;;;;;7.60;2.92;;;14.50;67.40;;;;;;5079655;28;20039;-70
2023/04/15 09:47:50;;;;;;;10.27;3.40;;;14.50;67.30;;;;;;5083017;28;20047;-70
2023/04/15 09:50:18;;;;;;;9.25;3.15;;;14.40;66.30;;;;;;5096816;28;20024;-70
2023/04/15 09:52:44;;;;;;;8.90;2.75;;;14.60;65.80;;;;;;5088556;28;20043;-69
2023/04/15 09:55:11;;;;;;;6.85;2.65;;;14.40;66.50;;;;;;5096311;28;20423;-70
2023/04/15 09:57:38;;;;;;;6.82;2.47;;;14.70;64.30;;;;;;5086449;28;20099;-69
2023/04/15 10:00:09;;;;;;;7.10;2.13;;;14.80;65.90;;;;;;5083102;28;20032;-70
2023/04/15 10:02:36;;;;;;;8.52;2.03;;;14.90;61.10;;;;;;5089476;28;20056;-71
2023/04/15 10:05:18;;;;;;;7.88;2.30;;;15.20;62.80;;;;;;5086198;28;20020;-70
2023/04/15 10:07:49;;;;;;;7.95;2.65;;;14.50;63.30;;;;;;5087206;28;20127;-71
2023/04/15 10:10:16;;;;;;;6.30;2.45;;;14.10;65.00;;;;;;5088632;28;20091;-71
2023/04/15 10:12:42;;;;;;;10.57;2.83;;;14.20;64.30;;;;;;5076020;28;20089;-71
2023/04/15 10:15:15;;;;;;;9.45;2.30;;;15.20;63.70;;;;;;5078333;28;20028;-70
2023/04/15 10:17:43;;;;;;;7.80;2.17;;;15.50;61.90;;;;;;5083224;28;20024;-71
2023/04/15 10:20:11;;;;;;;8.80;2.60;;;16.10;61.00;;;;;;5093122;28;20039;-71
2023/04/15 10:22:37;;;;;;;6.40;2.20;;;16.00;60.00;;;;;;5088642;28;20359;-83
2023/04/15 10:25:04;;;;;;;8.00;2.40;;;15.90;60.40;;;;;;5090653;28;20031;-71
2023/04/15 10:27:30;;;;;;;9.20;2.47;;;16.50;60.70;;;;;;5085684;28;20445;-71
2023/04/15 10:29:59;;;;;;;13.50;2.60;;;16.60;59.50;;;;;;5076263;28;20032;-71
2023/04/15 10:32:26;;;;;;;9.68;2.60;;;16.10;59.50;;;;;;5088057;28;20031;-71
2023/04/15 10:34:52;;;;;;;7.40;2.42;;;15.90;61.20;;;;;;5085056;28;20142;-71
2023/04/15 10:37:36;;;;;;;7.32;2.33;;;15.90;60.60;;;;;;5081364;28;20028;-70
2023/04/15 10:40:27;;;;;;;7.20;2.20;;;16.10;60.80;;;;;;5081645;28;20198;-70
2023/04/15 10:43:05;;;;;;;6.20;2.30;;;16.50;60.40;;;;;;5085197;28;20452;-71
2023/04/15 10:45:35;;;;;;;7.07;2.38;;;16.70;59.70;;;;;;5080500;28;20411;-70
2023/04/15 10:48:03;;;;;;;12.15;3.65;;;16.60;58.80;;;;;;5086759;28;20052;-70
2023/04/15 10:50:31;;;;;;;9.38;3.42;;;16.50;59.60;;;;;;5086278;28;20030;-71
2023/04/15 10:52:57;;;;;;;8.52;2.60;;;16.40;59.90;;;;;;5081788;28;20070;-71
2023/04/15 10:55:30;;;;;;;7.68;2.83;;;16.30;61.20;;;;;;5080485;28;20471;-70
2023/04/15 10:58:00;;;;;;;6.93;2.30;;;16.40;60.60;;;;;;5082661;28;20040;-71
2023/04/15 11:00:31;;;;;;;15.07;2.47;;;16.50;61.10;;;;;;5083687;28;20313;-70
2023/04/15 11:03:06;;;;;;;10.32;2.50;;;16.90;61.40;;;;;;5081095;28;20027;-71
2023/04/15 11:05:53;;;;;;;6.20;2.60;;;17.10;57.90;;;;;;5093774;28;20039;-69
2023/04/15 11:08:19;;;;;;;5.55;2.60;;;16.10;59.50;;;;;;5097728;28;20038;-68
2023/04/15 11:10:45;;;;;;;10.30;2.30;;;15.50;60.20;;;;;;5088967;28;20021;-69
2023/04/15 11:13:10;;;;;;;10.68;2.88;;;15.10;61.20;;;;;;5097832;28;20467;-69
2023/04/15 11:15:41;;;;;;;7.70;3.00;;;15.20;62.80;;;;;;5092127;28;20028;-69
2023/04/15 11:18:25;;;;;;;7.45;2.85;;;15.70;61.00;;;;;;5086547;28;20020;-71
2023/04/15 11:20:53;;;;;;;6.10;2.23;;;15.80;60.40;;;;;;5093356;28;20016;-70
2023/04/15 11:23:30;;;;;;;9.40;2.42;;;16.20;59.80;;;;;;5095190;28;20077;-70
2023/04/15 11:25:56;;;;;;;7.47;2.75;;;16.60;59.50;;;;;;5080228;28;20029;-70
2023/04/15 11:28:28;;;;;;;4.57;2.20;;;15.70;59.40;;;;;;5076745;28;20417;-70
2023/04/15 11:30:54;;;;;;;7.28;2.63;;;15.10;60.60;;;;;;5079952;28;20054;-68
2023/04/15 11:33:21;;;;;;;8.98;2.00;;;14.70;60.90;;;;;;5079172;28;20477;-69
2023/04/15 11:35:47;;;;;;;8.95;2.78;;;14.60;63.00;;;;;;5081173;28;20111;-71
2023/04/15 11:38:14;;;;;;;6.82;2.70;;;14.40;61.90;;;;;;5097358;28;20063;-70
2023/04/15 11:40:40;;;;;;;9.98;2.60;;;13.80;62.60;;;;;;5089560;28;20027;-70
2023/04/15 11:43:20;;;;;;;8.95;2.95;;;13.20;63.40;;;;;;5077283;28;20024;-70
2023/04/15 11:45:52;;;;;;;6.15;1.98;;;13.50;63.70;;;;;;5076894;28;20489;-70
2023/04/15 11:48:20;;;;;;;7.00;2.28;;;13.80;62.80;;;;;;5075368;28;20037;-70
2023/04/15 11:50:51;;;;;;;8.40;3.10;;;13.50;62.40;;;;;;5075262;28;20329;-69
2023/04/15 11:53:16;;;;;;;7.53;2.85;;;13.20;64.90;;;;;;5093456;28;20016;-70
2023/04/15 11:55:52;;;;;;;9.85;2.97;;;12.90;65.70;;;;;;5093574;28;20416;-70
2023/04/15 11:58:25;;;;;;;7.15;2.40;;;12.70;66.50;;;;;;5093828;28;20052;-71
2023/04/15 12:00:56;;;;;;;8.02;2.83;;;12.50;66.90;;;;;;5075319;28;20043;-70
2023/04/15 12:03:22;;;;;;;6.53;2.30;;;12.80;66.60;;;;;;5085733;28;20440;-70
2023/04/15 12:06:20;;;;;;;6.75;2.88;;;13.20;65.30;;;;;;5092744;28;20040;-70
2023/04/15 12:08:57;;;;;;;9.55;2.78;;;13.70;65.50;;;;;;5094804;28;20417;-70
2023/04/15 12:11:26;;;;;;;9.13;2.92;;;14.10;64.30;;;;;;5089910;28;20107;-70
2023/04/15 12:14:18;;;;;;;6.10;2.67;;;14.50;63.60;;;;;;5091903;28;20619;-70
2023/04/15 12:16:46;;;;;;;7.82;3.08;;;14.60;63.80;;;;;;5093962;28;20036;-70
2023/04/15 12:19:13;;;;;;;7.28;2.53;;;14.90;62.80;;;;;;5096471;27;20024;-70
2023/04/15 12:21:40;;;;;;;7.35;2.53;;;15.40;62.80;;;;;;5088445;28;20039;-70
2023/04/15 12:24:09;;;;;;;8.50;2.47;;;15.30;59.70;;;;;;5080516;28;20040;-71
2023/04/15 12:26:44;;;;;;;6.05;2.03;;;14.80;59.00;;;;;;5081150;28;20031;-71
2023/04/15 12:29:11;;;;;;;7.70;2.78;;;13.80;60.10;;;;;;5094049;28;20311;-71
2023/04/15 12:31:46;;;;;;;7.38;2.72;;;13.50;61.90;;;;;;5092341;28;20045;-71
2023/04/15 12:34:13;;;;;;;7.35;2.67;;;13.50;61.80;;;;;;5086691;28;20047;-70
2023/04/15 12:36:38;;;;;;;7.90;2.92;;;13.40;62.90;;;;;;5088328;28;20032;-71
2023/04/15 12:39:05;;;;;;;6.10;2.47;;;13.40;64.20;;;;;;5091849;28;20393;-72
2023/04/15 12:41:31;;;;;;;8.45;2.90;;;13.50;63.40;;;;;;5109414;28;20047;-70
2023/04/15 12:43:57;;;;;;;8.38;2.92;;;13.70;64.70;;;;;;5103398;28;20030;-70
2023/04/15 12:46:22;;;;;;;7.53;3.22;;;13.70;64.30;;;;;;5081367;28;20024;-71
2023/04/15 12:48:48;;;;;;;7.72;2.80;;;13.40;65.00;;;;;;5075590;28;20423;-70